createdAt,value
2022-07-31T00:01:41.178Z,99099.53
2022-07-31T00:04:10.004Z,99103.06
2022-07-31T00:06:39.337Z,99103.88
2022-07-31T00:09:48.844Z,99101.09
2022-07-31T00:11:57.532Z,99093.22
2022-07-31T00:14:27.788Z,99096.38
2022-07-31T00:16:57.614Z,99094.81
2022-07-31T00:19:27.318Z,99092.44
2022-07-31T00:21:56.383Z,99094.41
2022-07-31T00:24:25.249Z,99091.66
2022-07-31T00:26:54.110Z,99091.66
2022-07-31T00:29:22.954Z,99092.44
2022-07-31T00:31:53.223Z,99093.22
2022-07-31T00:34:22.074Z,99091.25
2022-07-31T00:36:51.221Z,99097.53
2022-07-31T00:39:19.921Z,99085.38
2022-07-31T00:41:49.773Z,99082.59
2022-07-31T00:44:18.663Z,99083.00
2022-07-31T00:46:47.461Z,99084.16
2022-07-31T00:49:17.626Z,99080.66
2022-07-31T00:51:46.333Z,99086.56
2022-07-31T00:54:17.513Z,99090.09
2022-07-31T00:56:52.141Z,99086.94
2022-07-31T00:59:24.973Z,99092.06
2022-07-31T01:01:54.311Z,99086.94
2022-07-31T01:04:26.368Z,99083.00
2022-07-31T01:06:57.240Z,99087.72
2022-07-31T01:09:28.926Z,99086.94
2022-07-31T01:12:03.442Z,99086.53
2022-07-31T01:14:37.003Z,99095.19
2022-07-31T01:17:09.602Z,99088.53
2022-07-31T01:19:43.309Z,99091.66
2022-07-31T01:22:34.402Z,99093.25
2022-07-31T01:25:11.462Z,99096.38
2022-07-31T01:28:20.503Z,99093.22
2022-07-31T01:31:17.321Z,99092.84
2022-07-31T01:33:51.194Z,99091.28
2022-07-31T01:36:24.203Z,99093.22
2022-07-31T01:38:57.346Z,99091.25
2022-07-31T01:41:30.317Z,99091.63
2022-07-31T01:44:00.238Z,99090.84
2022-07-31T01:46:32.529Z,99094.38
2022-07-31T01:49:10.332Z,99083.75
2022-07-31T01:51:41.397Z,99082.56
2022-07-31T01:54:13.460Z,99084.53
2022-07-31T01:56:43.513Z,99086.06
2022-07-31T01:59:20.426Z,99084.06
2022-07-31T02:02:11.086Z,99079.75
2022-07-31T02:04:41.109Z,99088.47
2022-07-31T02:07:11.433Z,99087.69
2022-07-31T02:09:53.701Z,99094.78
2022-07-31T02:12:34.684Z,99090.06
2022-07-31T02:15:25.577Z,99084.53
2022-07-31T02:17:57.502Z,99091.63
2022-07-31T02:20:35.212Z,99092.38
2022-07-31T02:23:04.517Z,99078.59
2022-07-31T02:25:35.505Z,99083.72
2022-07-31T02:28:10.628Z,99087.66
2022-07-31T02:30:42.407Z,99080.22
2022-07-31T02:33:16.038Z,99078.63
2022-07-31T02:35:49.434Z,99082.56
2022-07-31T02:38:23.534Z,99080.59
2022-07-31T02:40:59.071Z,99082.56
2022-07-31T02:43:31.345Z,99076.25
2022-07-31T02:46:03.113Z,99079.03
2022-07-31T02:48:34.160Z,99079.47
2022-07-31T02:51:07.036Z,99085.38
2022-07-31T02:53:37.738Z,99079.44
2022-07-31T02:56:09.481Z,99082.59
2022-07-31T02:58:42.297Z,99082.59
2022-07-31T03:01:19.583Z,99077.88
2022-07-31T03:03:50.402Z,99080.66
2022-07-31T03:06:20.682Z,99082.19
2022-07-31T03:08:49.811Z,99085.38
2022-07-31T03:11:22.995Z,99088.50
2022-07-31T03:13:54.686Z,99085.75
2022-07-31T03:16:24.387Z,99090.88
2022-07-31T03:18:55.353Z,99086.16
2022-07-31T03:21:24.851Z,99087.31
2022-07-31T03:23:53.967Z,99090.50
2022-07-31T03:26:24.677Z,99091.28
2022-07-31T03:28:53.334Z,99096.78
2022-07-31T03:31:22.466Z,99088.53
2022-07-31T03:33:51.253Z,99088.53
2022-07-31T03:36:21.854Z,99089.28
2022-07-31T03:38:50.960Z,99089.69
2022-07-31T03:41:27.085Z,99097.94
2022-07-31T03:43:56.140Z,99088.91
2022-07-31T03:46:26.439Z,99092.06
2022-07-31T03:48:55.703Z,99089.28
2022-07-31T03:51:28.978Z,99101.88
2022-07-31T03:53:58.086Z,99092.81
2022-07-31T03:56:49.750Z,99107.00
2022-07-31T03:59:21.577Z,99110.53
2022-07-31T04:01:57.345Z,99099.50
2022-07-31T04:04:54.326Z,99110.09
2022-07-31T04:07:24.936Z,99106.53
2022-07-31T04:09:54.014Z,99107.31
2022-07-31T04:12:22.883Z,99101.38
2022-07-31T04:14:51.505Z,99104.13
2022-07-31T04:17:20.948Z,99105.69
2022-07-31T04:19:50.041Z,99099.31
2022-07-31T04:22:19.051Z,99104.03
2022-07-31T04:24:49.601Z,99103.19
2022-07-31T04:27:48.492Z,99098.38
2022-07-31T04:30:18.691Z,99109.72
2022-07-31T04:32:48.853Z,99102.13
2022-07-31T04:35:23.499Z,99101.94
2022-07-31T04:37:52.295Z,99107.31
2022-07-31T04:40:26.493Z,99100.63
2022-07-31T04:42:56.140Z,99097.22
2022-07-31T04:45:24.773Z,99095.06
2022-07-31T04:47:55.043Z,99095.16
2022-07-31T04:50:23.873Z,99094.09
2022-07-31T04:53:00.313Z,99093.03
2022-07-31T04:55:36.626Z,99095.50
2022-07-31T04:58:05.622Z,99093.34
2022-07-31T05:00:34.551Z,99094.50
2022-07-31T05:03:03.421Z,99094.13
2022-07-31T05:05:32.517Z,99087.41
2022-07-31T05:08:02.754Z,99090.03
2022-07-31T05:11:00.481Z,99093.81
2022-07-31T05:13:31.046Z,99079.59
2022-07-31T05:16:00.003Z,99086.72
2022-07-31T05:18:29.001Z,99090.09
2022-07-31T05:21:30.814Z,99087.53
2022-07-31T05:24:33.629Z,99082.72
2022-07-31T05:27:24.774Z,99080.41
2022-07-31T05:29:58.488Z,99078.41
2022-07-31T05:32:27.387Z,99076.38
2022-07-31T05:34:56.339Z,99081.69
2022-07-31T05:37:26.544Z,99067.16
2022-07-31T05:39:55.516Z,99066.94
2022-07-31T05:42:45.062Z,99065.84
2022-07-31T05:45:27.089Z,99059.56
2022-07-31T05:47:56.053Z,99060.34
2022-07-31T05:50:25.106Z,99064.75
2022-07-31T05:52:55.246Z,99060.41
2022-07-31T05:56:01.865Z,99064.53
2022-07-31T05:58:40.966Z,99069.53
2022-07-31T06:01:10.654Z,99070.19
2022-07-31T06:03:52.053Z,99072.06
2022-07-31T06:06:24.220Z,99065.03
2022-07-31T06:08:53.347Z,99066.78
2022-07-31T06:11:22.151Z,99067.66
2022-07-31T06:13:52.707Z,99074.72
2022-07-31T06:16:31.138Z,99064.75
2022-07-31T06:19:00.237Z,99067.28
2022-07-31T06:21:30.896Z,99075.59
2022-07-31T06:24:00.271Z,99065.38
2022-07-31T06:26:39.317Z,99071.13
2022-07-31T06:29:09.762Z,99068.88
2022-07-31T06:31:38.536Z,99061.66
2022-07-31T06:34:07.527Z,99061.78
2022-07-31T06:36:45.853Z,99066.84
2022-07-31T06:39:17.604Z,99067.63
2022-07-31T06:42:21.848Z,99067.94
2022-07-31T06:45:08.908Z,99062.97
2022-07-31T06:47:52.888Z,99061.50
2022-07-31T06:50:54.191Z,99060.19
2022-07-31T06:53:38.216Z,99058.03
2022-07-31T06:56:07.111Z,99059.38
2022-07-31T06:58:36.058Z,99052.81
2022-07-31T07:01:06.340Z,99052.97
2022-07-31T07:03:35.720Z,99056.66
2022-07-31T07:06:04.751Z,99057.59
2022-07-31T07:08:34.653Z,99060.34
2022-07-31T07:11:03.693Z,99055.56
2022-07-31T07:13:45.158Z,99049.47
2022-07-31T07:16:17.938Z,99054.06
2022-07-31T07:18:47.319Z,99055.28
2022-07-31T07:21:16.408Z,99061.31
2022-07-31T07:23:45.603Z,99060.09
2022-07-31T07:26:31.732Z,99056.03
2022-07-31T07:29:02.810Z,99059.66
2022-07-31T07:31:34.237Z,99054.81
2022-07-31T07:34:06.495Z,99046.13
2022-07-31T07:36:35.498Z,99048.88
2022-07-31T07:39:07.552Z,99051.88
2022-07-31T07:41:38.777Z,99047.75
2022-07-31T07:44:08.077Z,99043.91
2022-07-31T07:46:38.200Z,99046.06
2022-07-31T07:49:08.493Z,99037.31
2022-07-31T07:52:03.673Z,99038.66
2022-07-31T07:54:43.393Z,99041.22
2022-07-31T07:57:24.740Z,99037.75
2022-07-31T08:00:14.458Z,99040.72
2022-07-31T08:03:46.665Z,99035.72
2022-07-31T08:05:41.481Z,99029.94
2022-07-31T08:08:11.420Z,99038.28
2022-07-31T08:10:41.411Z,99034.81
2022-07-31T08:13:14.933Z,99029.91
2022-07-31T08:16:06.959Z,99034.66
2022-07-31T08:18:58.933Z,99040.06
2022-07-31T08:21:28.595Z,99033.53
2022-07-31T08:23:57.634Z,99032.88
2022-07-31T08:26:28.125Z,99027.91
2022-07-31T08:28:58.507Z,99034.47
2022-07-31T08:31:34.176Z,99038.03
2022-07-31T08:34:31.801Z,99034.56
2022-07-31T08:37:50.796Z,99028.91
2022-07-31T08:39:55.871Z,99028.38
2022-07-31T08:42:25.996Z,99020.94
2022-07-31T08:44:55.611Z,99021.66
2022-07-31T08:47:33.184Z,99026.25
2022-07-31T08:50:12.469Z,99019.31
2022-07-31T08:52:44.797Z,99030.38
2022-07-31T08:55:57.050Z,99026.38
2022-07-31T08:58:30.223Z,99010.69
2022-07-31T09:00:59.635Z,99008.25
2022-07-31T09:03:28.373Z,99009.56
2022-07-31T09:06:05.266Z,99012.47
2022-07-31T09:08:34.901Z,99012.97
2022-07-31T09:11:06.533Z,99023.00
2022-07-31T09:13:40.816Z,99017.47
2022-07-31T09:16:30.731Z,99013.94
2022-07-31T09:19:02.627Z,99010.94
2022-07-31T09:21:42.889Z,99010.00
2022-07-31T09:24:14.226Z,99012.63
2022-07-31T09:26:43.123Z,99002.78
2022-07-31T09:29:14.187Z,99005.44
2022-07-31T09:31:43.411Z,99007.94
2022-07-31T09:34:45.075Z,99006.84
2022-07-31T09:37:22.390Z,98997.53
2022-07-31T09:40:21.299Z,99003.56
2022-07-31T09:43:31.363Z,99010.66
2022-07-31T09:46:02.620Z,99002.22
2022-07-31T09:48:32.163Z,99011.88
2022-07-31T09:51:02.725Z,99017.69
2022-07-31T09:53:46.729Z,99022.38
2022-07-31T09:56:51.642Z,99018.50
2022-07-31T09:59:21.262Z,99021.13
2022-07-31T10:01:51.277Z,99017.63
2022-07-31T10:04:22.081Z,99023.81
2022-07-31T10:06:52.715Z,99027.91
2022-07-31T10:09:24.937Z,99024.91
2022-07-31T10:12:21.130Z,99017.69
2022-07-31T10:14:53.004Z,99008.97
2022-07-31T10:17:26.087Z,99013.97
2022-07-31T10:20:19.303Z,99009.63
2022-07-31T10:23:16.631Z,99010.50
2022-07-31T10:25:53.685Z,99009.13
2022-07-31T10:28:25.536Z,99005.88
2022-07-31T10:30:55.205Z,99003.09
2022-07-31T10:36:37.102Z,99008.44
2022-07-31T10:39:37.298Z,99007.91
2022-07-31T10:42:30.970Z,99004.28
2022-07-31T10:45:08.798Z,99006.06
2022-07-31T10:47:59.973Z,99001.88
2022-07-31T10:51:07.625Z,99003.72
2022-07-31T10:53:58.788Z,99000.31
2022-07-31T10:56:48.475Z,99004.31
2022-07-31T10:59:44.903Z,98991.97
2022-07-31T11:02:28.940Z,98997.38
2022-07-31T11:05:30.909Z,98984.97
2022-07-31T11:08:46.243Z,98986.63
2022-07-31T11:11:39.054Z,98982.88
2022-07-31T11:14:34.602Z,98987.88
2022-07-31T11:18:21.822Z,98983.69
2022-07-31T11:20:48.250Z,98974.94
2022-07-31T11:23:18.846Z,98984.44
2022-07-31T11:25:48.134Z,98982.44
2022-07-31T11:28:21.786Z,98986.59
2022-07-31T11:30:53.066Z,98980.88
2022-07-31T11:33:42.134Z,98981.16
2022-07-31T11:36:14.023Z,98979.84
2022-07-31T11:38:46.859Z,98973.38
2022-07-31T11:41:16.879Z,98975.25
2022-07-31T11:43:53.168Z,98978.66
2022-07-31T11:46:27.311Z,98976.13
2022-07-31T11:48:58.406Z,98970.69
2022-07-31T11:51:31.201Z,98975.31
2022-07-31T11:54:00.523Z,98976.69
2022-07-31T11:56:29.700Z,98982.69
2022-07-31T11:58:59.830Z,98971.66
2022-07-31T12:01:31.060Z,98979.94
2022-07-31T12:04:09.054Z,98979.13
2022-07-31T12:06:39.671Z,98972.97
2022-07-31T12:10:02.210Z,98967.38
2022-07-31T12:11:59.349Z,98966.22
2022-07-31T12:14:32.871Z,98960.59
2022-07-31T12:17:02.946Z,98963.00
2022-07-31T12:19:37.450Z,98964.50
2022-07-31T12:22:14.697Z,98956.88
2022-07-31T12:24:44.360Z,98952.16
2022-07-31T12:27:17.297Z,98961.06
2022-07-31T12:29:46.456Z,98965.31
2022-07-31T12:32:26.310Z,98959.53
2022-07-31T12:35:06.063Z,98960.03
2022-07-31T12:37:44.650Z,98959.59
2022-07-31T12:40:25.242Z,98955.72
2022-07-31T12:42:54.445Z,98949.34
2022-07-31T12:45:37.264Z,98943.16
2022-07-31T12:48:07.349Z,98952.16
2022-07-31T12:50:37.802Z,98955.06
2022-07-31T12:53:06.897Z,98954.47
2022-07-31T12:55:36.156Z,98955.38
2022-07-31T12:58:05.424Z,98949.78
2022-07-31T13:00:39.539Z,98951.78
2022-07-31T13:03:09.195Z,98945.13
2022-07-31T13:05:39.851Z,98944.59
2022-07-31T13:08:09.275Z,98939.25
2022-07-31T13:10:38.336Z,98938.28
2022-07-31T13:13:07.718Z,98938.75
2022-07-31T13:15:36.635Z,98935.00
2022-07-31T13:18:05.997Z,98937.25
2022-07-31T13:20:35.037Z,98930.34
2022-07-31T13:23:05.495Z,98935.84
2022-07-31T13:25:34.308Z,98926.56
2022-07-31T13:28:02.959Z,98929.56
2022-07-31T13:30:52.002Z,98924.44
2022-07-31T13:33:26.088Z,98928.19
2022-07-31T13:35:54.933Z,98921.03
2022-07-31T13:38:25.328Z,98916.28
2022-07-31T13:41:11.326Z,98923.16
2022-07-31T13:43:40.273Z,98925.41
2022-07-31T13:46:30.033Z,98932.31
2022-07-31T13:49:02.219Z,98924.63
2022-07-31T13:51:31.854Z,98922.34
2022-07-31T13:54:02.261Z,98928.13
2022-07-31T13:56:39.557Z,98913.53
2022-07-31T13:59:16.477Z,98907.44
2022-07-31T14:02:03.849Z,98909.06
2022-07-31T14:04:38.370Z,98910.78
2022-07-31T14:07:08.076Z,98902.81
2022-07-31T14:09:38.816Z,98909.78
2022-07-31T14:12:15.976Z,98903.75
2022-07-31T14:14:45.019Z,98899.41
2022-07-31T14:17:13.976Z,98896.75
2022-07-31T14:19:44.323Z,98894.41
2022-07-31T14:22:14.743Z,98893.28
2022-07-31T14:24:49.976Z,98884.59
2022-07-31T14:27:21.916Z,98875.41
2022-07-31T14:29:51.461Z,98881.16
2022-07-31T14:32:22.531Z,98882.91
2022-07-31T14:34:51.918Z,98879.84
2022-07-31T14:37:21.536Z,98880.91
2022-07-31T14:39:52.093Z,98873.75
2022-07-31T14:42:22.081Z,98878.25
2022-07-31T14:44:54.867Z,98876.31
2022-07-31T14:47:23.766Z,98873.06
2022-07-31T14:50:06.739Z,98875.88
2022-07-31T14:52:38.442Z,98876.13
2022-07-31T14:55:09.055Z,98876.91
2022-07-31T14:57:38.801Z,98878.13
2022-07-31T15:00:13.164Z,98864.47
2022-07-31T15:02:42.478Z,98880.72
2022-07-31T15:06:50.752Z,98869.88
2022-07-31T15:08:00.679Z,98877.50
2022-07-31T15:10:33.899Z,98872.84
2022-07-31T15:13:02.780Z,98873.41
2022-07-31T15:15:33.807Z,98880.53
2022-07-31T15:18:02.675Z,98880.78
2022-07-31T15:20:33.172Z,98883.91
2022-07-31T15:23:02.645Z,98887.59
2022-07-31T15:25:31.346Z,98877.09
2022-07-31T15:28:01.380Z,98881.63
2022-07-31T15:30:30.151Z,98883.88
2022-07-31T15:32:59.000Z,98886.78
2022-07-31T15:35:27.747Z,98892.00
2022-07-31T15:37:59.215Z,98889.47
2022-07-31T15:40:28.200Z,98883.81
2022-07-31T15:42:57.115Z,98890.56
2022-07-31T15:45:27.302Z,98900.78
2022-07-31T15:47:55.815Z,98895.50
2022-07-31T15:50:24.586Z,98895.13
2022-07-31T15:52:53.171Z,98899.44
2022-07-31T15:55:21.682Z,98902.06
2022-07-31T15:57:50.239Z,98896.16
2022-07-31T16:00:18.786Z,98896.59
2022-07-31T16:02:49.892Z,98904.47
2022-07-31T16:05:36.142Z,98906.63
2022-07-31T16:08:30.686Z,98896.38
2022-07-31T16:10:55.260Z,98905.19
2022-07-31T16:13:24.286Z,98912.19
2022-07-31T16:15:53.325Z,98910.50
2022-07-31T16:18:23.755Z,98909.28
2022-07-31T16:20:53.201Z,98911.16
2022-07-31T16:23:21.662Z,98915.31
2022-07-31T16:25:50.184Z,98907.06
2022-07-31T16:28:21.521Z,98911.81
2022-07-31T16:30:51.684Z,98912.38
2022-07-31T16:33:20.378Z,98921.00
2022-07-31T16:35:50.522Z,98921.13
2022-07-31T16:38:18.947Z,98920.47
2022-07-31T16:40:51.813Z,98926.31
2022-07-31T16:43:48.800Z,98930.81
2022-07-31T16:46:10.743Z,98932.63
2022-07-31T16:48:39.718Z,98926.50
2022-07-31T16:51:10.493Z,98932.28
2022-07-31T16:54:12.047Z,98938.09
2022-07-31T16:56:28.401Z,98942.63
2022-07-31T16:58:58.798Z,98936.94
2022-07-31T17:01:57.218Z,98940.53
2022-07-31T17:04:16.278Z,98938.31
2022-07-31T17:06:47.515Z,98946.16
2022-07-31T17:09:18.557Z,98935.31
2022-07-31T17:11:48.373Z,98933.00
2022-07-31T17:14:17.698Z,98933.88
2022-07-31T17:16:49.264Z,98934.09
2022-07-31T17:19:42.389Z,98937.59
2022-07-31T17:22:11.355Z,98939.25
2022-07-31T17:24:40.744Z,98945.25
2022-07-31T17:27:10.632Z,98941.97
2022-07-31T17:29:39.987Z,98950.19
2022-07-31T17:32:11.023Z,98948.41
2022-07-31T17:34:40.328Z,98951.84
2022-07-31T17:37:11.826Z,98961.63
2022-07-31T17:39:40.807Z,98959.59
2022-07-31T17:42:15.422Z,98952.63
2022-07-31T17:44:48.943Z,98953.28
2022-07-31T17:47:21.729Z,98953.19
2022-07-31T17:49:50.459Z,98957.72
2022-07-31T17:52:21.834Z,98962.63
2022-07-31T17:54:51.588Z,98963.66
2022-07-31T17:57:20.387Z,98966.97
2022-07-31T17:59:51.376Z,98971.03
2022-07-31T18:02:20.253Z,98973.22
2022-07-31T18:04:48.805Z,98972.03
2022-07-31T18:07:19.487Z,98976.69
2022-07-31T18:09:49.506Z,98967.31
2022-07-31T18:12:18.150Z,98973.03
2022-07-31T18:14:47.286Z,98966.78
2022-07-31T18:17:16.073Z,98971.66
2022-07-31T18:19:44.762Z,98980.50
2022-07-31T18:22:13.710Z,98971.44
2022-07-31T18:24:42.132Z,98973.53
2022-07-31T18:27:12.563Z,98971.25
2022-07-31T18:29:41.396Z,98972.16
2022-07-31T18:32:24.165Z,98972.91
2022-07-31T18:34:52.614Z,98970.22
2022-07-31T18:37:21.151Z,98968.41
2022-07-31T18:39:49.676Z,98961.97
2022-07-31T18:42:19.671Z,98967.59
2022-07-31T18:44:48.627Z,98968.91
2022-07-31T18:47:17.161Z,98961.50
2022-07-31T18:50:58.698Z,98965.50
2022-07-31T18:52:35.579Z,98960.38
2022-07-31T18:55:04.350Z,98967.22
2022-07-31T18:57:34.255Z,98973.97
2022-07-31T19:00:03.138Z,98974.47
2022-07-31T19:02:33.108Z,98973.72
2022-07-31T19:05:01.723Z,98977.19
2022-07-31T19:07:35.919Z,98977.53
2022-07-31T19:10:05.403Z,98967.72
2022-07-31T19:12:35.522Z,98976.06
2022-07-31T19:15:05.174Z,98982.47
2022-07-31T19:17:43.242Z,98974.59
2022-07-31T19:20:41.143Z,98978.97
2022-07-31T19:23:02.631Z,98977.09
2022-07-31T19:26:03.389Z,98979.50
2022-07-31T19:28:27.127Z,98983.63
2022-07-31T19:30:56.388Z,98986.31
2022-07-31T19:33:24.998Z,98991.47
2022-07-31T19:36:00.361Z,98987.97
2022-07-31T19:38:30.177Z,98986.75
2022-07-31T19:40:59.160Z,98974.81
2022-07-31T19:43:29.213Z,98982.84
2022-07-31T19:46:10.865Z,98988.13
2022-07-31T19:48:42.313Z,98982.75
2022-07-31T19:51:11.114Z,98982.44
2022-07-31T19:53:39.637Z,98987.00
2022-07-31T19:56:08.197Z,98983.09
2022-07-31T19:58:38.655Z,98988.28
2022-07-31T20:01:08.425Z,98984.81
2022-07-31T20:03:37.456Z,98982.03
2022-07-31T20:06:06.606Z,98984.81
2022-07-31T20:08:36.145Z,98982.38
2022-07-31T20:11:05.520Z,98979.25
2022-07-31T20:13:34.410Z,98989.59
2022-07-31T20:16:04.718Z,98986.28
2022-07-31T20:18:33.313Z,98989.84
2022-07-31T20:21:03.690Z,98990.00
2022-07-31T20:23:34.503Z,99003.56
2022-07-31T20:26:03.469Z,98998.88
2022-07-31T20:28:32.192Z,98998.09
2022-07-31T20:31:00.769Z,98996.50
2022-07-31T20:33:30.694Z,98997.44
2022-07-31T20:35:59.239Z,98999.84
2022-07-31T20:38:27.975Z,99004.75
2022-07-31T20:40:56.584Z,99010.28
2022-07-31T20:43:26.343Z,99004.38
2022-07-31T20:45:57.537Z,99008.81
2022-07-31T20:48:31.531Z,99011.03
2022-07-31T20:51:02.923Z,99003.44
2022-07-31T20:53:32.014Z,99006.63
2022-07-31T20:56:00.461Z,99006.63
2022-07-31T20:58:29.238Z,99017.00
2022-07-31T21:00:57.848Z,99007.53
2022-07-31T21:03:26.487Z,99002.47
2022-07-31T21:05:55.037Z,99003.19
2022-07-31T21:08:24.958Z,99007.53
2022-07-31T21:10:53.547Z,99006.69
2022-07-31T21:13:21.887Z,99007.09
2022-07-31T21:15:51.572Z,99008.75
2022-07-31T21:18:21.263Z,99010.22
2022-07-31T21:20:53.471Z,99004.34
2022-07-31T21:23:23.263Z,99006.75
2022-07-31T21:25:53.800Z,99014.34
2022-07-31T21:28:22.571Z,99012.13
2022-07-31T21:30:51.203Z,99007.81
2022-07-31T21:33:20.104Z,99008.63
2022-07-31T21:35:48.917Z,99008.34
2022-07-31T21:38:18.362Z,99006.38
2022-07-31T21:40:47.730Z,98996.09
2022-07-31T21:43:22.228Z,99009.97
2022-07-31T21:45:57.480Z,99012.78
2022-07-31T21:48:30.412Z,99008.47
2022-07-31T21:50:59.485Z,99004.47
2022-07-31T21:53:28.019Z,99003.34
2022-07-31T21:55:57.656Z,99004.91
2022-07-31T21:58:27.478Z,99006.50
2022-07-31T22:00:56.185Z,99006.28
2022-07-31T22:03:25.526Z,99006.69
2022-07-31T22:06:11.091Z,98997.22
2022-07-31T22:08:39.628Z,99005.09
2022-07-31T22:11:08.202Z,99008.34
2022-07-31T22:13:38.020Z,99005.56
2022-07-31T22:16:06.811Z,99002.78
2022-07-31T22:18:36.138Z,99000.50
2022-07-31T22:21:05.868Z,99008.06
2022-07-31T22:23:34.696Z,99018.41
2022-07-31T22:26:03.397Z,99019.13
2022-07-31T22:28:32.337Z,99016.38
2022-07-31T22:31:02.426Z,99023.91
2022-07-31T22:33:31.078Z,99022.31
2022-07-31T22:36:02.950Z,99025.84
2022-07-31T22:38:32.190Z,99015.91
2022-07-31T22:41:01.478Z,99013.13
2022-07-31T22:44:09.452Z,99016.28
2022-07-31T22:46:20.504Z,99017.13
2022-07-31T22:48:49.342Z,99013.50
2022-07-31T22:51:19.040Z,99024.22
2022-07-31T22:53:48.814Z,99015.50
2022-07-31T22:56:17.846Z,99021.78
2022-07-31T22:58:46.635Z,99018.63
2022-07-31T23:01:15.268Z,99019.41
2022-07-31T23:03:45.162Z,99024.94
2022-07-31T23:06:30.942Z,99022.63
2022-07-31T23:09:01.468Z,99026.97
2022-07-31T23:11:30.250Z,99029.75
2022-07-31T23:13:59.325Z,99023.84
2022-07-31T23:16:28.136Z,99027.44
2022-07-31T23:18:58.156Z,99033.06
2022-07-31T23:21:26.944Z,99041.75
2022-07-31T23:23:55.444Z,99033.16
2022-07-31T23:26:25.360Z,99030.38
2022-07-31T23:28:54.782Z,99032.00
2022-07-31T23:31:23.710Z,99028.06
2022-07-31T23:33:52.513Z,99022.16
2022-07-31T23:36:22.762Z,99023.03
2022-07-31T23:38:51.500Z,99025.44
2022-07-31T23:41:41.161Z,99032.69
2022-07-31T23:44:10.670Z,99024.44
2022-07-31T23:46:39.548Z,99031.47
2022-07-31T23:49:09.229Z,99026.66
2022-07-31T23:51:39.287Z,99032.59
2022-07-31T23:54:08.464Z,99030.69
2022-07-31T23:56:36.903Z,99036.63
2022-07-31T23:59:05.495Z,99027.97
